Flight Number: EUR2442 Duration: 6:00
Departure: Dakar Int'l Airport (GOOY) at 08:00 Distance: 2481 Nm
Arrival: Munich Int'l (EDDM) at 14:00 Equipment: B777

Weather Information
Dakar / Yoff, Senegal (GOOY) 14-44N 017-30W 24M Feb 19, 2018 - 02:00 AM EST / 2018.02.19 0700 UTC
Wind: from the N (360 degrees) at 9 MPH (8 KT):0
Visibility: 4 mile(s):0 Temperature: 62 F (17 C) Dew Point: 60 F (16 C) Relative Humidity: 93% Pressure (altimeter): 29.83 in. Hg (1010 hPa)
ob: GOOY 190700Z 36008KT 8000 NSC 17/16 Q1010 cycle: 7
Sunrise: 07:34 Sunset: 19:13 (UTC)

Munchen, Germany (EDDM) 48-21N 011-47E Feb 19, 2018 - 02:20 AM EST / 2018.02.19 0720 UTC
Wind: Variable at 1 MPH (1 KT):0
Visibility: greater than 7 mile(s):0
Sky conditions: mostly cloudy Temperature: 24 F (-4 C) Dew Point: 23 F (-5 C) Relative Humidity: 92% Pressure (altimeter): 30.09 in. Hg (1019 hPa)
ob: EDDM 190720Z VRB01KT 9999 BKN010 M04/M05 Q1019 R88/190095 TEMPO BKN008 cycle: 7
Sunrise: 06:15 Sunset: 16:37 (UTC)

TAF:2018/02/19 06:27 TAF EDDM 190500Z 1906/2012 06005KT 8000 BKN012 TEMPO 1907/1918 BKN008 BECMG 1915/1918 VRB03KT BECMG 1920/1922 BKN020

Previous Pireps for this route
Date Aircraft Flight time Fuel used Landing rate On time
2016-03-10B77706.11109136-84Yes
2016-04-10B77705.05106121-224Yes
(pireps marked green are flown by you)

Route map